sensor_id;sensor_type;location;lat;lon;timestamp;P1;durP1;ratioP1;P2;durP2;ratioP2
40781;SDS011;26493;51.938;7.626;2023-07-16T00:01:46;14.18;;;5.70;;
40781;SDS011;26493;51.938;7.626;2023-07-16T00:04:12;15.35;;;5.70;;
40781;SDS011;26493;51.938;7.626;2023-07-16T00:06:38;14.20;;;5.38;;
40781;SDS011;26493;51.938;7.626;2023-07-16T00:09:05;14.00;;;5.30;;
40781;SDS011;26493;51.938;7.626;2023-07-16T00:11:31;13.82;;;5.70;;
40781;SDS011;26493;51.938;7.626;2023-07-16T00:13:57;15.30;;;5.85;;
40781;SDS011;26493;51.938;7.626;2023-07-16T00:16:23;13.30;;;5.70;;
40781;SDS011;26493;51.938;7.626;2023-07-16T00:18:49;16.10;;;6.05;;
40781;SDS011;26493;51.938;7.626;2023-07-16T00:21:15;14.48;;;6.10;;
40781;SDS011;26493;51.938;7.626;2023-07-16T00:23:41;14.52;;;5.85;;
40781;SDS011;26493;51.938;7.626;2023-07-16T00:26:07;14.98;;;6.25;;
40781;SDS011;26493;51.938;7.626;2023-07-16T00:28:33;16.70;;;6.88;;
40781;SDS011;26493;51.938;7.626;2023-07-16T00:31:00;14.13;;;6.43;;
40781;SDS011;26493;51.938;7.626;2023-07-16T00:33:26;14.50;;;6.13;;
40781;SDS011;26493;51.938;7.626;2023-07-16T00:35:52;13.90;;;6.00;;
40781;SDS011;26493;51.938;7.626;2023-07-16T00:38:18;15.10;;;5.80;;
40781;SDS011;26493;51.938;7.626;2023-07-16T00:40:45;16.50;;;7.07;;
40781;SDS011;26493;51.938;7.626;2023-07-16T00:43:11;13.48;;;5.82;;
40781;SDS011;26493;51.938;7.626;2023-07-16T00:45:37;16.58;;;6.57;;
40781;SDS011;26493;51.938;7.626;2023-07-16T00:48:04;15.23;;;6.10;;
40781;SDS011;26493;51.938;7.626;2023-07-16T00:50:31;14.52;;;5.75;;
40781;SDS011;26493;51.938;7.626;2023-07-16T00:53:00;15.15;;;5.85;;
40781;SDS011;26493;51.938;7.626;2023-07-16T00:55:26;16.98;;;6.25;;
40781;SDS011;26493;51.938;7.626;2023-07-16T00:57:53;15.20;;;6.43;;
40781;SDS011;26493;51.938;7.626;2023-07-16T01:00:21;14.07;;;6.40;;
40781;SDS011;26493;51.938;7.626;2023-07-16T01:02:47;15.75;;;5.85;;
40781;SDS011;26493;51.938;7.626;2023-07-16T01:05:13;15.07;;;6.07;;
40781;SDS011;26493;51.938;7.626;2023-07-16T01:07:39;15.98;;;6.63;;
40781;SDS011;26493;51.938;7.626;2023-07-16T01:10:08;15.40;;;6.35;;
40781;SDS011;26493;51.938;7.626;2023-07-16T01:12:35;14.90;;;6.45;;
40781;SDS011;26493;51.938;7.626;2023-07-16T01:15:02;15.73;;;6.82;;
40781;SDS011;26493;51.938;7.626;2023-07-16T01:17:28;15.48;;;6.30;;
40781;SDS011;26493;51.938;7.626;2023-07-16T01:19:54;15.48;;;6.20;;
40781;SDS011;26493;51.938;7.626;2023-07-16T01:30:03;15.70;;;7.07;;
40781;SDS011;26493;51.938;7.626;2023-07-16T01:32:32;15.55;;;7.38;;
40781;SDS011;26493;51.938;7.626;2023-07-16T01:34:59;16.20;;;7.05;;
40781;SDS011;26493;51.938;7.626;2023-07-16T01:37:25;16.13;;;7.00;;
40781;SDS011;26493;51.938;7.626;2023-07-16T01:39:51;15.73;;;6.68;;
40781;SDS011;26493;51.938;7.626;2023-07-16T01:42:17;17.20;;;6.97;;
40781;SDS011;26493;51.938;7.626;2023-07-16T01:44:43;17.88;;;7.30;;
40781;SDS011;26493;51.938;7.626;2023-07-16T01:49:44;17.50;;;7.72;;
40781;SDS011;26493;51.938;7.626;2023-07-16T01:52:11;16.60;;;7.68;;
40781;SDS011;26493;51.938;7.626;2023-07-16T01:54:37;15.88;;;6.57;;
40781;SDS011;26493;51.938;7.626;2023-07-16T01:57:04;16.00;;;7.18;;
40781;SDS011;26493;51.938;7.626;2023-07-16T01:59:30;15.55;;;7.15;;
40781;SDS011;26493;51.938;7.626;2023-07-16T02:01:56;16.75;;;7.20;;
40781;SDS011;26493;51.938;7.626;2023-07-16T02:04:22;16.52;;;6.75;;
40781;SDS011;26493;51.938;7.626;2023-07-16T02:06:48;16.88;;;7.32;;
40781;SDS011;26493;51.938;7.626;2023-07-16T02:09:14;16.45;;;7.53;;
40781;SDS011;26493;51.938;7.626;2023-07-16T02:11:40;15.35;;;6.85;;
40781;SDS011;26493;51.938;7.626;2023-07-16T02:14:06;18.77;;;6.68;;
40781;SDS011;26493;51.938;7.626;2023-07-16T02:16:32;15.93;;;7.07;;
40781;SDS011;26493;51.938;7.626;2023-07-16T02:18:58;17.75;;;7.70;;
40781;SDS011;26493;51.938;7.626;2023-07-16T02:21:24;18.30;;;7.95;;
40781;SDS011;26493;51.938;7.626;2023-07-16T02:23:50;16.35;;;7.90;;
40781;SDS011;26493;51.938;7.626;2023-07-16T02:26:16;17.17;;;7.95;;
40781;SDS011;26493;51.938;7.626;2023-07-16T02:28:42;16.17;;;7.53;;
40781;SDS011;26493;51.938;7.626;2023-07-16T02:31:08;16.50;;;7.95;;
40781;SDS011;26493;51.938;7.626;2023-07-16T02:33:34;17.15;;;7.40;;
40781;SDS011;26493;51.938;7.626;2023-07-16T02:36:00;19.90;;;8.63;;
40781;SDS011;26493;51.938;7.626;2023-07-16T02:38:26;17.00;;;7.80;;
40781;SDS011;26493;51.938;7.626;2023-07-16T02:40:52;17.73;;;7.63;;
40781;SDS011;26493;51.938;7.626;2023-07-16T02:43:18;18.75;;;8.85;;
40781;SDS011;26493;51.938;7.626;2023-07-16T02:45:44;18.85;;;7.75;;
40781;SDS011;26493;51.938;7.626;2023-07-16T02:48:09;19.13;;;8.35;;
40781;SDS011;26493;51.938;7.626;2023-07-16T02:50:36;19.50;;;8.35;;
40781;SDS011;26493;51.938;7.626;2023-07-16T02:53:05;18.38;;;8.00;;
40781;SDS011;26493;51.938;7.626;2023-07-16T02:55:32;17.50;;;8.70;;
40781;SDS011;26493;51.938;7.626;2023-07-16T02:57:58;17.02;;;7.97;;
40781;SDS011;26493;51.938;7.626;2023-07-16T03:00:27;16.90;;;7.57;;
40781;SDS011;26493;51.938;7.626;2023-07-16T03:02:54;17.98;;;7.85;;
40781;SDS011;26493;51.938;7.626;2023-07-16T03:05:20;18.42;;;8.82;;
40781;SDS011;26493;51.938;7.626;2023-07-16T03:07:46;20.50;;;9.27;;
40781;SDS011;26493;51.938;7.626;2023-07-16T03:10:11;18.20;;;8.30;;
40781;SDS011;26493;51.938;7.626;2023-07-16T03:12:37;19.50;;;8.13;;
40781;SDS011;26493;51.938;7.626;2023-07-16T03:15:03;19.40;;;8.13;;
40781;SDS011;26493;51.938;7.626;2023-07-16T03:17:30;18.75;;;8.07;;
40781;SDS011;26493;51.938;7.626;2023-07-16T03:19:55;19.20;;;8.07;;
40781;SDS011;26493;51.938;7.626;2023-07-16T03:22:21;20.27;;;8.68;;
40781;SDS011;26493;51.938;7.626;2023-07-16T03:24:47;17.38;;;7.78;;
40781;SDS011;26493;51.938;7.626;2023-07-16T03:27:13;22.98;;;9.65;;
40781;SDS011;26493;51.938;7.626;2023-07-16T03:29:39;19.25;;;8.68;;
40781;SDS011;26493;51.938;7.626;2023-07-16T03:32:05;18.73;;;8.90;;
40781;SDS011;26493;51.938;7.626;2023-07-16T03:34:31;23.77;;;10.10;;
40781;SDS011;26493;51.938;7.626;2023-07-16T03:36:57;20.73;;;10.07;;
40781;SDS011;26493;51.938;7.626;2023-07-16T03:39:23;19.20;;;9.23;;
40781;SDS011;26493;51.938;7.626;2023-07-16T03:41:49;19.55;;;8.63;;
40781;SDS011;26493;51.938;7.626;2023-07-16T03:44:15;18.38;;;8.77;;
40781;SDS011;26493;51.938;7.626;2023-07-16T03:46:41;18.58;;;8.85;;
40781;SDS011;26493;51.938;7.626;2023-07-16T03:49:07;19.42;;;8.95;;
40781;SDS011;26493;51.938;7.626;2023-07-16T03:51:34;17.02;;;7.90;;
40781;SDS011;26493;51.938;7.626;2023-07-16T03:53:59;17.13;;;7.70;;
40781;SDS011;26493;51.938;7.626;2023-07-16T03:56:25;18.58;;;7.82;;
40781;SDS011;26493;51.938;7.626;2023-07-16T03:58:51;16.75;;;7.70;;
40781;SDS011;26493;51.938;7.626;2023-07-16T04:01:17;17.00;;;7.78;;
40781;SDS011;26493;51.938;7.626;2023-07-16T04:03:43;20.52;;;7.55;;
40781;SDS011;26493;51.938;7.626;2023-07-16T04:06:10;16.42;;;6.93;;
40781;SDS011;26493;51.938;7.626;2023-07-16T04:08:36;16.15;;;6.88;;
40781;SDS011;26493;51.938;7.626;2023-07-16T04:11:03;19.33;;;7.75;;
40781;SDS011;26493;51.938;7.626;2023-07-16T04:13:29;16.42;;;7.38;;
40781;SDS011;26493;51.938;7.626;2023-07-16T04:15:55;17.27;;;6.70;;
40781;SDS011;26493;51.938;7.626;2023-07-16T04:18:23;16.85;;;6.82;;
40781;SDS011;26493;51.938;7.626;2023-07-16T04:20:49;17.00;;;6.78;;
40781;SDS011;26493;51.938;7.626;2023-07-16T04:23:15;22.95;;;8.23;;
40781;SDS011;26493;51.938;7.626;2023-07-16T04:25:41;17.23;;;6.72;;
40781;SDS011;26493;51.938;7.626;2023-07-16T04:28:07;15.38;;;6.70;;
40781;SDS011;26493;51.938;7.626;2023-07-16T04:30:33;18.08;;;6.78;;
40781;SDS011;26493;51.938;7.626;2023-07-16T04:32:59;17.52;;;7.30;;
40781;SDS011;26493;51.938;7.626;2023-07-16T04:35:25;15.55;;;6.70;;
40781;SDS011;26493;51.938;7.626;2023-07-16T04:37:51;16.90;;;6.80;;
40781;SDS011;26493;51.938;7.626;2023-07-16T04:40:17;18.75;;;7.43;;
40781;SDS011;26493;51.938;7.626;2023-07-16T04:42:43;17.35;;;6.70;;
40781;SDS011;26493;51.938;7.626;2023-07-16T04:45:09;15.27;;;6.68;;
40781;SDS011;26493;51.938;7.626;2023-07-16T04:47:35;14.40;;;6.60;;
40781;SDS011;26493;51.938;7.626;2023-07-16T04:50:01;17.08;;;6.28;;
40781;SDS011;26493;51.938;7.626;2023-07-16T04:52:27;16.02;;;6.20;;
40781;SDS011;26493;51.938;7.626;2023-07-16T04:54:53;14.75;;;6.07;;
40781;SDS011;26493;51.938;7.626;2023-07-16T04:57:19;15.60;;;5.60;;
40781;SDS011;26493;51.938;7.626;2023-07-16T04:59:45;14.45;;;6.53;;
40781;SDS011;26493;51.938;7.626;2023-07-16T05:02:11;15.02;;;5.80;;
40781;SDS011;26493;51.938;7.626;2023-07-16T05:04:37;19.75;;;6.05;;
40781;SDS011;26493;51.938;7.626;2023-07-16T05:07:03;17.02;;;6.55;;
40781;SDS011;26493;51.938;7.626;2023-07-16T05:09:29;15.48;;;6.13;;
40781;SDS011;26493;51.938;7.626;2023-07-16T05:11:55;20.80;;;7.13;;
40781;SDS011;26493;51.938;7.626;2023-07-16T05:14:21;15.35;;;7.25;;
40781;SDS011;26493;51.938;7.626;2023-07-16T05:16:47;17.58;;;7.68;;
40781;SDS011;26493;51.938;7.626;2023-07-16T05:19:13;16.35;;;6.95;;
40781;SDS011;26493;51.938;7.626;2023-07-16T05:21:39;16.08;;;6.97;;
40781;SDS011;26493;51.938;7.626;2023-07-16T05:24:05;16.92;;;7.72;;
40781;SDS011;26493;51.938;7.626;2023-07-16T05:26:31;17.90;;;7.80;;
40781;SDS011;26493;51.938;7.626;2023-07-16T05:28:58;15.70;;;7.35;;
40781;SDS011;26493;51.938;7.626;2023-07-16T05:31:24;17.67;;;6.80;;
40781;SDS011;26493;51.938;7.626;2023-07-16T05:33:50;20.00;;;7.78;;
40781;SDS011;26493;51.938;7.626;2023-07-16T05:36:16;19.40;;;7.63;;
40781;SDS011;26493;51.938;7.626;2023-07-16T05:38:42;17.63;;;7.45;;
40781;SDS011;26493;51.938;7.626;2023-07-16T05:41:08;19.00;;;7.60;;
40781;SDS011;26493;51.938;7.626;2023-07-16T05:43:33;19.70;;;7.35;;
40781;SDS011;26493;51.938;7.626;2023-07-16T05:45:59;24.25;;;8.20;;
40781;SDS011;26493;51.938;7.626;2023-07-16T05:48:25;19.08;;;8.20;;
40781;SDS011;26493;51.938;7.626;2023-07-16T05:50:51;17.25;;;8.30;;
40781;SDS011;26493;51.938;7.626;2023-07-16T05:53:17;17.48;;;8.35;;
40781;SDS011;26493;51.938;7.626;2023-07-16T05:55:43;20.70;;;9.38;;
40781;SDS011;26493;51.938;7.626;2023-07-16T05:58:10;18.45;;;9.68;;
40781;SDS011;26493;51.938;7.626;2023-07-16T06:00:35;22.40;;;9.68;;
40781;SDS011;26493;51.938;7.626;2023-07-16T06:03:02;19.90;;;8.52;;
40781;SDS011;26493;51.938;7.626;2023-07-16T06:05:28;20.88;;;8.88;;
40781;SDS011;26493;51.938;7.626;2023-07-16T06:07:59;18.13;;;8.18;;
40781;SDS011;26493;51.938;7.626;2023-07-16T06:10:25;18.50;;;7.93;;
40781;SDS011;26493;51.938;7.626;2023-07-16T06:12:51;17.05;;;8.60;;
40781;SDS011;26493;51.938;7.626;2023-07-16T06:15:17;18.13;;;8.82;;
40781;SDS011;26493;51.938;7.626;2023-07-16T06:17:43;18.30;;;9.05;;
40781;SDS011;26493;51.938;7.626;2023-07-16T06:20:09;18.70;;;8.70;;
40781;SDS011;26493;51.938;7.626;2023-07-16T06:22:35;19.65;;;9.00;;
40781;SDS011;26493;51.938;7.626;2023-07-16T06:25:01;20.23;;;9.35;;
40781;SDS011;26493;51.938;7.626;2023-07-16T06:27:27;21.15;;;9.75;;
40781;SDS011;26493;51.938;7.626;2023-07-16T06:29:53;18.13;;;8.90;;
40781;SDS011;26493;51.938;7.626;2023-07-16T06:32:19;18.52;;;9.25;;
40781;SDS011;26493;51.938;7.626;2023-07-16T06:34:45;21.95;;;9.35;;
40781;SDS011;26493;51.938;7.626;2023-07-16T06:37:11;21.88;;;9.45;;
40781;SDS011;26493;51.938;7.626;2023-07-16T06:39:37;18.77;;;9.65;;
40781;SDS011;26493;51.938;7.626;2023-07-16T06:42:03;24.52;;;9.88;;
40781;SDS011;26493;51.938;7.626;2023-07-16T06:44:29;23.73;;;10.05;;
40781;SDS011;26493;51.938;7.626;2023-07-16T06:46:55;21.38;;;9.35;;
40781;SDS011;26493;51.938;7.626;2023-07-16T06:49:22;26.95;;;11.05;;
40781;SDS011;26493;51.938;7.626;2023-07-16T06:51:48;18.15;;;9.25;;
40781;SDS011;26493;51.938;7.626;2023-07-16T06:54:14;18.40;;;9.77;;
40781;SDS011;26493;51.938;7.626;2023-07-16T06:56:41;20.23;;;9.55;;
40781;SDS011;26493;51.938;7.626;2023-07-16T06:59:06;18.45;;;8.93;;
40781;SDS011;26493;51.938;7.626;2023-07-16T07:01:32;18.52;;;9.00;;
40781;SDS011;26493;51.938;7.626;2023-07-16T07:03:58;19.35;;;8.85;;
40781;SDS011;26493;51.938;7.626;2023-07-16T07:06:24;19.75;;;9.13;;
40781;SDS011;26493;51.938;7.626;2023-07-16T07:08:50;19.67;;;10.00;;
40781;SDS011;26493;51.938;7.626;2023-07-16T07:11:16;17.95;;;8.65;;
40781;SDS011;26493;51.938;7.626;2023-07-16T07:13:42;19.08;;;9.45;;
40781;SDS011;26493;51.938;7.626;2023-07-16T07:16:09;21.58;;;8.95;;
40781;SDS011;26493;51.938;7.626;2023-07-16T07:18:35;19.15;;;9.27;;
40781;SDS011;26493;51.938;7.626;2023-07-16T07:21:01;18.63;;;9.60;;
40781;SDS011;26493;51.938;7.626;2023-07-16T07:23:27;21.33;;;9.40;;
40781;SDS011;26493;51.938;7.626;2023-07-16T07:25:53;17.45;;;9.45;;
40781;SDS011;26493;51.938;7.626;2023-07-16T07:28:19;19.40;;;9.43;;
40781;SDS011;26493;51.938;7.626;2023-07-16T07:30:45;20.83;;;9.90;;
40781;SDS011;26493;51.938;7.626;2023-07-16T07:33:11;22.55;;;10.25;;
40781;SDS011;26493;51.938;7.626;2023-07-16T07:35:37;19.60;;;10.23;;
40781;SDS011;26493;51.938;7.626;2023-07-16T07:38:03;19.00;;;10.38;;
40781;SDS011;26493;51.938;7.626;2023-07-16T07:40:29;19.52;;;9.63;;
40781;SDS011;26493;51.938;7.626;2023-07-16T07:42:55;19.02;;;10.13;;
40781;SDS011;26493;51.938;7.626;2023-07-16T07:45:23;20.63;;;10.38;;
40781;SDS011;26493;51.938;7.626;2023-07-16T07:47:49;19.65;;;11.02;;
40781;SDS011;26493;51.938;7.626;2023-07-16T07:50:15;18.20;;;10.40;;
40781;SDS011;26493;51.938;7.626;2023-07-16T07:52:41;22.10;;;10.70;;
40781;SDS011;26493;51.938;7.626;2023-07-16T07:55:07;19.48;;;10.45;;
40781;SDS011;26493;51.938;7.626;2023-07-16T07:57:33;19.13;;;10.40;;
40781;SDS011;26493;51.938;7.626;2023-07-16T07:59:59;20.48;;;10.30;;
40781;SDS011;26493;51.938;7.626;2023-07-16T08:02:25;18.25;;;9.90;;
40781;SDS011;26493;51.938;7.626;2023-07-16T08:04:52;18.50;;;10.15;;
40781;SDS011;26493;51.938;7.626;2023-07-16T08:07:18;18.27;;;9.75;;
40781;SDS011;26493;51.938;7.626;2023-07-16T08:09:45;19.17;;;9.60;;
40781;SDS011;26493;51.938;7.626;2023-07-16T08:12:11;20.38;;;10.00;;
40781;SDS011;26493;51.938;7.626;2023-07-16T08:14:37;19.08;;;9.80;;
40781;SDS011;26493;51.938;7.626;2023-07-16T08:17:03;17.90;;;9.80;;
40781;SDS011;26493;51.938;7.626;2023-07-16T08:19:29;21.48;;;9.70;;
40781;SDS011;26493;51.938;7.626;2023-07-16T08:21:55;18.48;;;9.50;;
40781;SDS011;26493;51.938;7.626;2023-07-16T08:24:21;22.85;;;10.57;;
40781;SDS011;26493;51.938;7.626;2023-07-16T08:26:47;18.98;;;10.18;;
40781;SDS011;26493;51.938;7.626;2023-07-16T08:29:13;18.83;;;10.50;;
40781;SDS011;26493;51.938;7.626;2023-07-16T08:31:39;17.02;;;9.88;;
40781;SDS011;26493;51.938;7.626;2023-07-16T08:34:05;20.73;;;10.63;;
40781;SDS011;26493;51.938;7.626;2023-07-16T08:36:32;20.45;;;10.65;;
40781;SDS011;26493;51.938;7.626;2023-07-16T08:38:58;20.23;;;10.60;;
40781;SDS011;26493;51.938;7.626;2023-07-16T08:41:24;19.52;;;10.95;;
40781;SDS011;26493;51.938;7.626;2023-07-16T08:43:50;19.05;;;10.93;;
40781;SDS011;26493;51.938;7.626;2023-07-16T08:46:17;19.45;;;10.65;;
40781;SDS011;26493;51.938;7.626;2023-07-16T08:48:43;18.70;;;11.00;;
40781;SDS011;26493;51.938;7.626;2023-07-16T08:51:10;19.38;;;10.10;;
40781;SDS011;26493;51.938;7.626;2023-07-16T08:53:38;19.90;;;11.68;;
40781;SDS011;26493;51.938;7.626;2023-07-16T08:56:04;18.08;;;10.80;;
40781;SDS011;26493;51.938;7.626;2023-07-16T08:58:31;19.63;;;11.30;;
40781;SDS011;26493;51.938;7.626;2023-07-16T09:00:58;17.67;;;10.38;;
40781;SDS011;26493;51.938;7.626;2023-07-16T09:03:25;18.10;;;10.32;;
40781;SDS011;26493;51.938;7.626;2023-07-16T09:05:50;17.85;;;10.38;;
40781;SDS011;26493;51.938;7.626;2023-07-16T09:08:16;18.90;;;9.95;;
40781;SDS011;26493;51.938;7.626;2023-07-16T09:10:43;16.60;;;10.10;;
40781;SDS011;26493;51.938;7.626;2023-07-16T09:13:09;20.60;;;11.13;;
40781;SDS011;26493;51.938;7.626;2023-07-16T09:15:35;18.92;;;11.23;;
40781;SDS011;26493;51.938;7.626;2023-07-16T09:18:02;17.38;;;10.32;;
40781;SDS011;26493;51.938;7.626;2023-07-16T09:20:29;19.52;;;10.70;;
40781;SDS011;26493;51.938;7.626;2023-07-16T09:22:57;18.83;;;10.80;;
40781;SDS011;26493;51.938;7.626;2023-07-16T09:25:27;17.75;;;10.63;;
40781;SDS011;26493;51.938;7.626;2023-07-16T09:27:53;20.13;;;10.93;;
40781;SDS011;26493;51.938;7.626;2023-07-16T09:30:19;20.17;;;11.25;;
40781;SDS011;26493;51.938;7.626;2023-07-16T09:32:45;17.58;;;10.63;;
40781;SDS011;26493;51.938;7.626;2023-07-16T09:35:13;19.80;;;10.75;;
40781;SDS011;26493;51.938;7.626;2023-07-16T09:37:40;20.20;;;11.30;;
40781;SDS011;26493;51.938;7.626;2023-07-16T09:40:08;17.33;;;10.75;;
40781;SDS011;26493;51.938;7.626;2023-07-16T09:42:38;17.10;;;11.47;;
40781;SDS011;26493;51.938;7.626;2023-07-16T09:45:07;19.55;;;11.52;;
40781;SDS011;26493;51.938;7.626;2023-07-16T09:47:36;21.20;;;11.27;;
40781;SDS011;26493;51.938;7.626;2023-07-16T09:50:02;18.63;;;11.68;;
40781;SDS011;26493;51.938;7.626;2023-07-16T09:52:32;18.15;;;10.60;;
40781;SDS011;26493;51.938;7.626;2023-07-16T09:55:00;18.52;;;11.65;;
40781;SDS011;26493;51.938;7.626;2023-07-16T09:57:26;21.80;;;11.23;;
40781;SDS011;26493;51.938;7.626;2023-07-16T09:59:54;20.08;;;11.55;;
40781;SDS011;26493;51.938;7.626;2023-07-16T10:02:21;17.55;;;11.27;;
40781;SDS011;26493;51.938;7.626;2023-07-16T10:04:48;20.52;;;11.30;;
40781;SDS011;26493;51.938;7.626;2023-07-16T10:07:24;21.05;;;11.65;;
40781;SDS011;26493;51.938;7.626;2023-07-16T10:09:55;17.95;;;11.25;;
40781;SDS011;26493;51.938;7.626;2023-07-16T10:12:25;18.40;;;11.20;;
40781;SDS011;26493;51.938;7.626;2023-07-16T10:14:52;21.63;;;12.30;;
40781;SDS011;26493;51.938;7.626;2023-07-16T10:17:18;18.20;;;11.50;;
40781;SDS011;26493;51.938;7.626;2023-07-16T10:19:45;18.63;;;11.57;;
40781;SDS011;26493;51.938;7.626;2023-07-16T10:22:11;17.98;;;11.20;;
40781;SDS011;26493;51.938;7.626;2023-07-16T10:24:38;17.80;;;11.43;;
40781;SDS011;26493;51.938;7.626;2023-07-16T10:27:04;19.17;;;11.48;;
40781;SDS011;26493;51.938;7.626;2023-07-16T10:29:30;19.08;;;12.00;;
40781;SDS011;26493;51.938;7.626;2023-07-16T10:31:58;19.95;;;11.70;;
40781;SDS011;26493;51.938;7.626;2023-07-16T10:34:24;17.42;;;11.57;;
40781;SDS011;26493;51.938;7.626;2023-07-16T10:36:51;19.48;;;11.48;;
40781;SDS011;26493;51.938;7.626;2023-07-16T10:39:17;18.40;;;11.30;;
40781;SDS011;26493;51.938;7.626;2023-07-16T10:41:43;18.80;;;12.40;;
40781;SDS011;26493;51.938;7.626;2023-07-16T10:44:09;19.65;;;12.32;;
40781;SDS011;26493;51.938;7.626;2023-07-16T10:46:35;17.85;;;11.15;;
40781;SDS011;26493;51.938;7.626;2023-07-16T10:49:02;18.33;;;11.70;;
40781;SDS011;26493;51.938;7.626;2023-07-16T10:51:28;19.20;;;11.75;;
40781;SDS011;26493;51.938;7.626;2023-07-16T10:53:57;19.23;;;11.77;;
40781;SDS011;26493;51.938;7.626;2023-07-16T10:56:23;18.73;;;11.05;;
40781;SDS011;26493;51.938;7.626;2023-07-16T10:58:49;17.38;;;11.27;;
40781;SDS011;26493;51.938;7.626;2023-07-16T11:01:16;16.90;;;11.55;;
40781;SDS011;26493;51.938;7.626;2023-07-16T11:03:42;18.83;;;11.40;;
40781;SDS011;26493;51.938;7.626;2023-07-16T11:06:08;19.95;;;11.38;;
40781;SDS011;26493;51.938;7.626;2023-07-16T11:08:34;19.45;;;12.20;;
40781;SDS011;26493;51.938;7.626;2023-07-16T11:11:00;17.52;;;10.75;;
40781;SDS011;26493;51.938;7.626;2023-07-16T11:13:27;19.05;;;12.10;;
40781;SDS011;26493;51.938;7.626;2023-07-16T11:15:53;18.13;;;10.70;;
40781;SDS011;26493;51.938;7.626;2023-07-16T11:18:21;17.23;;;11.20;;
40781;SDS011;26493;51.938;7.626;2023-07-16T11:20:50;18.77;;;11.07;;
40781;SDS011;26493;51.938;7.626;2023-07-16T11:23:16;19.00;;;11.90;;
40781;SDS011;26493;51.938;7.626;2023-07-16T11:25:46;17.42;;;12.27;;
40781;SDS011;26493;51.938;7.626;2023-07-16T11:28:12;19.70;;;12.10;;
40781;SDS011;26493;51.938;7.626;2023-07-16T11:30:38;18.60;;;12.23;;
40781;SDS011;26493;51.938;7.626;2023-07-16T11:33:09;21.90;;;12.27;;
40781;SDS011;26493;51.938;7.626;2023-07-16T11:35:35;17.08;;;11.65;;
40781;SDS011;26493;51.938;7.626;2023-07-16T11:38:03;18.88;;;11.43;;
40781;SDS011;26493;51.938;7.626;2023-07-16T11:40:30;19.85;;;12.35;;
40781;SDS011;26493;51.938;7.626;2023-07-16T11:42:56;18.60;;;11.88;;
40781;SDS011;26493;51.938;7.626;2023-07-16T11:45:23;22.20;;;12.23;;
40781;SDS011;26493;51.938;7.626;2023-07-16T11:47:51;18.55;;;11.70;;
40781;SDS011;26493;51.938;7.626;2023-07-16T11:50:17;18.83;;;11.68;;
40781;SDS011;26493;51.938;7.626;2023-07-16T11:52:51;18.50;;;11.90;;
40781;SDS011;26493;51.938;7.626;2023-07-16T11:55:17;17.75;;;12.23;;
40781;SDS011;26493;51.938;7.626;2023-07-16T11:57:43;17.48;;;11.65;;
40781;SDS011;26493;51.938;7.626;2023-07-16T12:00:09;20.13;;;11.82;;
40781;SDS011;26493;51.938;7.626;2023-07-16T12:02:36;18.50;;;12.60;;
40781;SDS011;26493;51.938;7.626;2023-07-16T12:05:02;18.33;;;12.23;;
40781;SDS011;26493;51.938;7.626;2023-07-16T12:07:32;16.58;;;11.52;;
40781;SDS011;26493;51.938;7.626;2023-07-16T12:09:58;20.85;;;12.40;;
40781;SDS011;26493;51.938;7.626;2023-07-16T12:12:24;19.13;;;11.63;;
40781;SDS011;26493;51.938;7.626;2023-07-16T12:14:51;18.98;;;11.70;;
40781;SDS011;26493;51.938;7.626;2023-07-16T12:17:17;18.58;;;11.90;;
40781;SDS011;26493;51.938;7.626;2023-07-16T12:19:43;18.00;;;11.65;;
40781;SDS011;26493;51.938;7.626;2023-07-16T12:22:09;16.60;;;11.57;;
40781;SDS011;26493;51.938;7.626;2023-07-16T12:24:35;20.23;;;11.40;;
40781;SDS011;26493;51.938;7.626;2023-07-16T12:27:01;19.15;;;12.32;;
40781;SDS011;26493;51.938;7.626;2023-07-16T12:29:27;19.50;;;12.07;;
40781;SDS011;26493;51.938;7.626;2023-07-16T12:31:53;18.50;;;11.70;;
40781;SDS011;26493;51.938;7.626;2023-07-16T12:34:19;17.42;;;11.27;;
40781;SDS011;26493;51.938;7.626;2023-07-16T12:36:45;18.75;;;11.90;;
40781;SDS011;26493;51.938;7.626;2023-07-16T12:39:11;20.15;;;12.63;;
40781;SDS011;26493;51.938;7.626;2023-07-16T12:41:37;19.55;;;12.30;;
40781;SDS011;26493;51.938;7.626;2023-07-16T12:44:03;19.98;;;12.93;;
40781;SDS011;26493;51.938;7.626;2023-07-16T12:46:29;19.60;;;12.45;;
40781;SDS011;26493;51.938;7.626;2023-07-16T12:48:55;17.73;;;11.43;;
40781;SDS011;26493;51.938;7.626;2023-07-16T12:51:21;18.17;;;12.10;;
40781;SDS011;26493;51.938;7.626;2023-07-16T12:53:47;18.77;;;12.07;;
40781;SDS011;26493;51.938;7.626;2023-07-16T12:56:13;18.25;;;11.68;;
40781;SDS011;26493;51.938;7.626;2023-07-16T12:58:39;16.90;;;11.50;;
40781;SDS011;26493;51.938;7.626;2023-07-16T13:01:05;18.50;;;12.10;;
40781;SDS011;26493;51.938;7.626;2023-07-16T13:03:31;21.42;;;11.35;;
40781;SDS011;26493;51.938;7.626;2023-07-16T13:05:57;17.63;;;12.60;;
40781;SDS011;26493;51.938;7.626;2023-07-16T13:08:23;19.98;;;12.40;;
40781;SDS011;26493;51.938;7.626;2023-07-16T13:10:49;19.40;;;12.48;;
40781;SDS011;26493;51.938;7.626;2023-07-16T13:13:15;18.55;;;12.65;;
40781;SDS011;26493;51.938;7.626;2023-07-16T13:15:41;18.15;;;12.15;;
40781;SDS011;26493;51.938;7.626;2023-07-16T13:18:09;18.63;;;11.93;;
40781;SDS011;26493;51.938;7.626;2023-07-16T13:20:35;19.92;;;12.95;;
40781;SDS011;26493;51.938;7.626;2023-07-16T13:23:01;20.38;;;12.75;;
40781;SDS011;26493;51.938;7.626;2023-07-16T13:25:28;20.75;;;12.68;;
40781;SDS011;26493;51.938;7.626;2023-07-16T13:27:55;17.25;;;11.73;;
40781;SDS011;26493;51.938;7.626;2023-07-16T13:30:21;20.75;;;12.23;;
40781;SDS011;26493;51.938;7.626;2023-07-16T13:32:48;20.67;;;12.40;;
40781;SDS011;26493;51.938;7.626;2023-07-16T13:35:17;19.77;;;12.63;;
40781;SDS011;26493;51.938;7.626;2023-07-16T13:37:43;19.75;;;12.13;;
40781;SDS011;26493;51.938;7.626;2023-07-16T13:40:11;18.35;;;12.23;;
40781;SDS011;26493;51.938;7.626;2023-07-16T13:42:37;18.17;;;12.32;;
40781;SDS011;26493;51.938;7.626;2023-07-16T13:45:03;20.08;;;13.05;;
40781;SDS011;26493;51.938;7.626;2023-07-16T13:47:29;18.92;;;12.32;;
40781;SDS011;26493;51.938;7.626;2023-07-16T13:49:55;22.80;;;12.18;;
40781;SDS011;26493;51.938;7.626;2023-07-16T13:52:22;18.55;;;11.63;;
40781;SDS011;26493;51.938;7.626;2023-07-16T13:54:48;19.63;;;12.25;;
40781;SDS011;26493;51.938;7.626;2023-07-16T13:57:14;20.17;;;12.40;;
40781;SDS011;26493;51.938;7.626;2023-07-16T13:59:40;17.30;;;12.48;;
40781;SDS011;26493;51.938;7.626;2023-07-16T14:02:06;17.55;;;12.68;;
40781;SDS011;26493;51.938;7.626;2023-07-16T14:04:32;19.33;;;13.10;;
40781;SDS011;26493;51.938;7.626;2023-07-16T14:06:58;17.23;;;12.48;;
40781;SDS011;26493;51.938;7.626;2023-07-16T14:09:24;17.67;;;12.40;;
40781;SDS011;26493;51.938;7.626;2023-07-16T14:11:50;17.48;;;12.48;;
40781;SDS011;26493;51.938;7.626;2023-07-16T14:14:17;18.17;;;12.27;;
40781;SDS011;26493;51.938;7.626;2023-07-16T14:16:43;17.60;;;12.85;;
40781;SDS011;26493;51.938;7.626;2023-07-16T14:19:09;18.10;;;12.55;;
40781;SDS011;26493;51.938;7.626;2023-07-16T14:21:37;17.02;;;12.05;;
40781;SDS011;26493;51.938;7.626;2023-07-16T14:24:03;16.98;;;12.10;;
40781;SDS011;26493;51.938;7.626;2023-07-16T14:26:29;16.40;;;11.73;;
40781;SDS011;26493;51.938;7.626;2023-07-16T14:28:55;19.00;;;12.20;;
40781;SDS011;26493;51.938;7.626;2023-07-16T14:31:21;17.10;;;12.18;;
40781;SDS011;26493;51.938;7.626;2023-07-16T14:33:47;18.50;;;12.68;;